createdAt,value
2017-07-05T15:39:49.515Z,1004.3
2017-07-05T15:40:51.218Z,1004.3
2017-07-05T15:41:52.845Z,1004.3
2017-07-05T15:42:54.495Z,1004.3
2017-07-05T15:43:57.068Z,1004.3
2017-07-05T16:01:06.440Z,1004.2
2017-07-05T16:07:29.679Z,1004.2
2017-07-05T16:08:08.062Z,1004.2
2017-07-05T16:11:51.794Z,1004.2
2017-07-05T16:12:25.107Z,1004.3
2017-07-05T16:13:28.536Z,1004.3
2017-07-05T16:14:30.306Z,1004.2
2017-07-05T16:15:38.151Z,1004.2
2017-07-05T16:16:39.782Z,1004.3
2017-07-05T16:17:42.207Z,1004.3
2017-07-05T16:18:43.829Z,1004.3
2017-07-05T16:19:45.433Z,1004.2
2017-07-05T16:20:47.282Z,1004.2
2017-07-05T16:21:49.612Z,1004.2
2017-07-05T16:22:51.206Z,1004.2
2017-07-05T16:23:53.744Z,1004.2
2017-07-05T16:24:55.354Z,1004.2
2017-07-05T16:33:29.792Z,1004.2
2017-07-05T16:36:23.479Z,1004.1
2017-07-05T16:48:18.391Z,1004.1
2017-07-05T16:49:20.029Z,1004.1
2017-07-05T16:50:22.895Z,1004.1
2017-07-05T16:51:25.829Z,1004.1
2017-07-05T16:52:27.431Z,1004.0
2017-07-05T16:54:26.854Z,1004.0
2017-07-05T16:55:28.492Z,1004.0
2017-07-05T16:56:30.086Z,1004.0
2017-07-05T16:57:20.130Z,1004.0
2017-07-05T17:04:47.089Z,1004.0
2017-07-05T17:05:40.404Z,1004.0
2017-07-05T17:06:42.041Z,1004.0
2017-07-05T17:07:44.019Z,1004.0
2017-07-05T17:08:46.523Z,1004.0
2017-07-05T17:09:48.708Z,1004.0
2017-07-05T17:10:50.334Z,1004.1
2017-07-05T17:11:53.088Z,1004.1
2017-07-05T17:12:55.184Z,1004.1
2017-07-05T17:13:56.794Z,1004.0
2017-07-05T17:14:58.423Z,1004.0
2017-07-05T17:16:00.067Z,1004.1
2017-07-05T17:17:03.223Z,1004.1
2017-07-05T17:18:10.395Z,1004.0
2017-07-05T17:19:15.357Z,1004.1
2017-07-05T17:20:17.054Z,1004.1
2017-07-05T17:21:21.239Z,1004.1
2017-07-05T17:22:22.868Z,1004.1
2017-07-05T17:23:25.783Z,1004.2
2017-07-05T17:24:27.468Z,1004.1
2017-07-05T17:25:29.219Z,1004.2
2017-07-05T17:26:30.906Z,1004.2
2017-07-05T17:27:32.505Z,1004.2
2017-07-05T17:28:34.506Z,1004.2
2017-07-05T17:29:36.716Z,1004.2
2017-07-05T17:30:39.099Z,1004.1
2017-07-05T17:31:40.715Z,1004.2
2017-07-05T17:32:42.358Z,1004.2
2017-07-05T17:33:46.843Z,1004.2
2017-07-05T17:34:48.489Z,1004.2
2017-07-05T17:35:50.120Z,1004.2
2017-07-05T17:36:53.256Z,1004.2
2017-07-05T17:37:54.866Z,1004.3
2017-07-05T17:38:56.735Z,1004.3
2017-07-05T17:39:59.205Z,1004.3
2017-07-05T17:41:01.685Z,1004.3
2017-07-05T17:42:04.244Z,1004.3
2017-07-05T17:43:06.600Z,1004.3
2017-07-05T17:44:08.666Z,1004.3
2017-07-05T17:45:10.325Z,1004.3
2017-07-05T17:46:12.634Z,1004.3
2017-07-05T17:47:16.041Z,1004.2
2017-07-05T17:48:17.662Z,1004.2
2017-07-05T17:49:19.649Z,1004.2
2017-07-05T17:50:21.257Z,1004.2
2017-07-05T17:51:22.898Z,1004.2
2017-07-05T17:52:24.510Z,1004.2
2017-07-05T17:53:26.168Z,1004.2
2017-07-05T17:54:28.816Z,1004.2
2017-07-05T17:55:31.342Z,1004.3
2017-07-05T17:56:34.794Z,1004.3
2017-07-05T17:57:36.425Z,1004.3
2017-07-05T17:58:38.060Z,1004.2
2017-07-05T17:59:40.060Z,1004.3
2017-07-05T18:00:41.655Z,1004.2
2017-07-05T18:01:43.302Z,1004.3
2017-07-05T18:02:44.905Z,1004.3
2017-07-05T18:03:46.546Z,1004.3
2017-07-05T18:04:48.361Z,1004.3
2017-07-05T18:05:50.021Z,1004.3
2017-07-05T18:06:51.615Z,1004.3
2017-07-05T18:07:53.249Z,1004.3
2017-07-05T18:08:54.893Z,1004.3
2017-07-05T18:09:56.884Z,1004.3
2017-07-05T18:10:58.485Z,1004.3
2017-07-05T18:12:00.188Z,1004.3
2017-07-05T18:13:01.798Z,1004.2
2017-07-05T18:14:03.624Z,1004.2
2017-07-05T18:15:05.998Z,1004.2
2017-07-05T18:16:07.658Z,1004.2
2017-07-05T18:17:09.249Z,1004.2
2017-07-05T18:18:10.891Z,1004.2
2017-07-05T18:19:12.493Z,1004.3
2017-07-05T18:20:14.535Z,1004.3
2017-07-05T18:21:16.130Z,1004.3
2017-07-05T18:22:18.563Z,1004.3
2017-07-05T18:23:20.163Z,1004.4
2017-07-05T18:24:21.774Z,1004.4
2017-07-05T18:25:24.617Z,1004.4
2017-07-05T18:26:27.060Z,1004.4
2017-07-05T18:27:29.518Z,1004.3
2017-07-05T18:28:31.143Z,1004.3
2017-07-05T18:29:34.544Z,1004.3
2017-07-05T18:30:36.577Z,1004.3
2017-07-05T18:31:39.473Z,1004.3
2017-07-05T18:32:41.919Z,1004.3
2017-07-05T18:33:45.125Z,1004.3
2017-07-05T18:34:46.777Z,1004.3
2017-07-05T18:35:48.721Z,1004.3
2017-07-05T18:36:51.181Z,1004.3
2017-07-05T18:37:53.658Z,1004.3
2017-07-05T18:38:55.323Z,1004.3
2017-07-05T18:39:56.910Z,1004.2
2017-07-05T18:40:58.852Z,1004.2
2017-07-05T18:42:00.602Z,1004.2
2017-07-05T18:43:02.216Z,1004.2
2017-07-05T18:44:05.688Z,1004.2
2017-07-05T18:45:07.298Z,1004.2
2017-07-05T18:46:11.694Z,1004.1
2017-07-05T18:47:13.336Z,1004.1
2017-07-05T18:48:14.937Z,1004.1
2017-07-05T18:49:16.544Z,1004.1
2017-07-05T18:50:19.101Z,1004.2
2017-07-05T18:51:21.152Z,1004.2
2017-07-05T18:52:24.034Z,1004.2
2017-07-05T18:53:25.666Z,1004.1
2017-07-05T18:54:28.727Z,1004.2
2017-07-05T18:55:30.346Z,1004.2
2017-07-05T18:56:34.974Z,1004.2
2017-07-05T18:57:37.266Z,1004.2
2017-07-05T18:58:39.730Z,1004.2
2017-07-05T18:59:43.084Z,1004.3
2017-07-05T19:00:45.163Z,1004.4
2017-07-05T19:01:47.096Z,1004.4
2017-07-05T19:02:49.852Z,1004.4
2017-07-05T19:03:51.459Z,1004.4
2017-07-05T19:04:54.787Z,1004.5
2017-07-05T19:05:56.406Z,1004.4
2017-07-05T19:06:59.709Z,1004.5
2017-07-05T19:08:01.343Z,1004.4
2017-07-05T19:09:04.824Z,1004.5
2017-07-05T19:10:06.441Z,1004.5
2017-07-05T19:11:09.713Z,1004.5
2017-07-05T19:12:11.723Z,1004.5
2017-07-05T19:13:14.648Z,1004.5
2017-07-05T19:14:17.144Z,1004.5
2017-07-05T19:15:20.622Z,1004.5
2017-07-05T19:16:22.253Z,1004.5
2017-07-05T19:17:24.162Z,1004.5
2017-07-05T19:18:25.776Z,1004.5
2017-07-05T19:19:28.055Z,1004.5
2017-07-05T19:20:29.726Z,1004.5
2017-07-05T19:21:33.065Z,1004.5
2017-07-05T19:22:35.002Z,1004.5
2017-07-05T19:23:37.912Z,1004.6
2017-07-05T19:24:39.596Z,1004.6
2017-07-05T19:25:42.778Z,1004.6
2017-07-05T19:26:44.384Z,1004.6
2017-07-05T19:27:48.320Z,1004.5
2017-07-05T19:28:49.952Z,1004.6
2017-07-05T19:29:52.982Z,1004.6
2017-07-05T19:30:54.606Z,1004.6
2017-07-05T19:31:57.662Z,1004.6
2017-07-05T19:33:01.144Z,1004.6
2017-07-05T19:34:03.029Z,1004.6
2017-07-05T19:35:04.775Z,1004.5
2017-07-05T19:36:07.987Z,1004.6
2017-07-05T19:37:10.269Z,1004.6
2017-07-05T19:38:12.888Z,1004.6
2017-07-05T19:39:14.502Z,1004.6
2017-07-05T19:40:17.822Z,1004.6
2017-07-05T19:41:20.395Z,1004.6
2017-07-05T19:42:22.729Z,1004.5
2017-07-05T19:43:24.648Z,1004.5
2017-07-05T19:44:27.764Z,1004.6
2017-07-05T19:45:29.961Z,1004.6
2017-07-05T19:46:32.574Z,1004.6
2017-07-05T19:47:34.182Z,1004.6
2017-07-05T19:48:37.610Z,1004.6
2017-07-05T19:49:39.292Z,1004.6
2017-07-05T19:50:43.614Z,1004.6
2017-07-05T19:51:45.230Z,1004.6
2017-07-05T19:52:48.467Z,1004.6
2017-07-05T19:53:52.157Z,1004.6
2017-07-05T19:54:53.771Z,1004.6
2017-07-05T19:55:55.414Z,1004.7
2017-07-05T19:56:57.026Z,1004.7
2017-07-05T19:57:59.390Z,1004.7
2017-07-05T19:59:01.288Z,1004.7
2017-07-05T20:00:03.094Z,1004.7
2017-07-05T20:01:04.683Z,1004.7
2017-07-05T20:02:06.284Z,1004.7
2017-07-05T20:03:09.347Z,1004.7
2017-07-05T20:04:11.424Z,1004.7
2017-07-05T20:05:14.285Z,1004.7
2017-07-05T20:06:15.904Z,1004.7
2017-07-05T20:07:19.275Z,1004.7
2017-07-05T20:08:20.872Z,1004.8
2017-07-05T20:09:24.928Z,1004.8
2017-07-05T20:10:27.435Z,1004.8
2017-07-05T20:11:29.062Z,1004.8
2017-07-05T20:12:31.398Z,1004.8
2017-07-05T20:13:33.990Z,1004.8
2017-07-05T20:14:36.051Z,1004.8
2017-07-05T20:15:37.683Z,1004.9
2017-07-05T20:16:39.322Z,1004.9
2017-07-05T20:17:41.680Z,1004.9
2017-07-05T20:18:43.311Z,1004.9
2017-07-05T20:19:46.181Z,1004.9
2017-07-05T20:20:48.498Z,1004.9
2017-07-05T20:21:50.100Z,1004.9
2017-07-05T20:22:51.737Z,1004.9
2017-07-05T20:23:53.927Z,1004.9
2017-07-05T20:24:55.756Z,1004.9
2017-07-05T20:25:58.833Z,1004.9
2017-07-05T20:27:01.044Z,1004.9
2017-07-05T20:28:04.349Z,1005.0
2017-07-05T20:29:06.043Z,1004.9
2017-07-05T20:30:07.901Z,1005.0
2017-07-05T20:31:10.273Z,1004.9
2017-07-05T20:32:11.884Z,1005.0
2017-07-05T20:33:14.317Z,1005.0
2017-07-05T20:34:16.145Z,1005.0
2017-07-05T20:35:18.160Z,1005.0
2017-07-05T20:36:21.703Z,1005.0
2017-07-05T20:37:23.334Z,1005.1
2017-07-05T20:38:25.984Z,1005.0
2017-07-05T20:39:27.585Z,1005.1
2017-07-05T20:40:30.824Z,1005.0
2017-07-05T20:41:32.451Z,1005.0
2017-07-05T20:42:35.719Z,1005.1
2017-07-05T20:43:37.319Z,1005.0
2017-07-05T20:44:40.478Z,1005.1
2017-07-05T20:45:42.588Z,1005.0
2017-07-05T20:46:46.386Z,1005.0
2017-07-05T20:47:48.024Z,1005.1
2017-07-05T20:48:49.624Z,1005.1
2017-07-05T20:49:51.234Z,1005.1
2017-07-05T20:50:54.234Z,1005.0
2017-07-05T20:51:55.846Z,1005.1
2017-07-05T20:52:59.674Z,1005.0
2017-07-05T20:54:01.298Z,1005.1
2017-07-05T20:55:03.947Z,1005.1
2017-07-05T20:56:06.490Z,1005.1
2017-07-05T20:57:08.846Z,1005.1
2017-07-05T20:58:10.452Z,1005.1
2017-07-05T20:59:13.858Z,1005.1
2017-07-05T21:00:15.474Z,1005.1
2017-07-05T21:01:18.481Z,1005.1
2017-07-05T21:02:20.080Z,1005.2
2017-07-05T21:03:23.951Z,1005.1
2017-07-05T21:04:26.242Z,1005.1
2017-07-05T21:05:29.143Z,1005.2
2017-07-05T21:06:31.854Z,1005.1
2017-07-05T21:07:34.184Z,1005.2
2017-07-05T21:08:35.794Z,1005.2
2017-07-05T21:09:39.055Z,1005.2
2017-07-05T21:10:40.670Z,1005.2
2017-07-05T21:11:44.076Z,1005.2
2017-07-05T21:12:45.677Z,1005.2
2017-07-05T21:13:48.948Z,1005.2
2017-07-05T21:14:50.553Z,1005.2
2017-07-05T21:15:54.066Z,1005.2
2017-07-05T21:16:56.093Z,1005.2
2017-07-05T21:17:58.941Z,1005.2
2017-07-05T21:19:00.560Z,1005.2
2017-07-05T21:20:03.742Z,1005.2
2017-07-05T21:21:05.333Z,1005.2
2017-07-05T21:22:09.079Z,1005.2
2017-07-05T21:23:10.690Z,1005.2
2017-07-05T21:24:14.093Z,1005.2
2017-07-05T21:25:17.276Z,1005.2
2017-07-05T21:26:19.011Z,1005.2
2017-07-05T21:27:21.012Z,1005.2
2017-07-05T21:28:23.842Z,1005.2
2017-07-05T21:29:25.435Z,1005.2
2017-07-05T21:30:28.864Z,1005.2
2017-07-05T21:31:30.497Z,1005.2
2017-07-05T21:32:33.526Z,1005.2
2017-07-05T21:33:35.119Z,1005.2
2017-07-05T21:34:37.753Z,1005.2
2017-07-05T21:35:39.371Z,1005.2
2017-07-05T21:36:42.572Z,1005.2
2017-07-05T21:37:44.585Z,1005.2
2017-07-05T21:38:47.538Z,1005.2
2017-07-05T21:39:49.152Z,1005.2
2017-07-05T21:40:52.476Z,1005.2
2017-07-05T21:41:54.080Z,1005.2
2017-07-05T21:42:58.436Z,1005.3
2017-07-05T21:44:00.077Z,1005.2
2017-07-05T21:45:01.669Z,1005.3
2017-07-05T21:46:03.275Z,1005.3
2017-07-05T21:47:06.220Z,1005.3
2017-07-05T21:48:08.219Z,1005.3
2017-07-05T21:49:11.071Z,1005.3
2017-07-05T21:50:13.613Z,1005.2
2017-07-05T21:51:17.388Z,1005.3
2017-07-05T21:52:19.074Z,1005.2
2017-07-05T21:53:21.601Z,1005.2
2017-07-05T21:54:22.530Z,1005.2
2017-07-05T21:55:24.392Z,1005.3
2017-07-05T21:56:26.651Z,1005.3
2017-07-05T21:57:29.287Z,1005.3
2017-07-05T21:58:31.249Z,1005.2
2017-07-05T21:59:34.076Z,1005.2
2017-07-05T22:00:35.672Z,1005.2
2017-07-05T22:01:39.227Z,1005.2
2017-07-05T22:02:40.840Z,1005.2
2017-07-05T22:03:44.433Z,1005.2
2017-07-05T22:04:46.046Z,1005.2
2017-07-05T22:05:49.417Z,1005.2
2017-07-05T22:06:51.023Z,1005.3
2017-07-05T22:07:54.322Z,1005.2
2017-07-05T22:08:57.128Z,1005.2
2017-07-05T22:09:59.286Z,1005.2
2017-07-05T22:11:00.893Z,1005.2
2017-07-05T22:12:04.194Z,1005.2
2017-07-05T22:13:05.807Z,1005.2
2017-07-05T22:14:09.150Z,1005.2
2017-07-05T22:15:10.773Z,1005.2
2017-07-05T22:16:14.096Z,1005.2
2017-07-05T22:17:15.710Z,1005.3
2017-07-05T22:18:20.052Z,1005.3
2017-07-05T22:19:21.997Z,1005.3
2017-07-05T22:20:23.591Z,1005.3
2017-07-05T22:21:25.197Z,1005.4
2017-07-05T22:22:27.498Z,1005.4
2017-07-05T22:23:29.614Z,1005.4
2017-07-05T22:24:33.125Z,1005.3
2017-07-05T22:25:34.752Z,1005.3
2017-07-05T22:26:36.358Z,1005.2
2017-07-05T22:27:37.950Z,1005.2
2017-07-05T22:28:41.252Z,1005.3
2017-07-05T22:29:43.205Z,1005.2
2017-07-05T22:30:46.265Z,1005.2
2017-07-05T22:31:47.894Z,1005.2
2017-07-05T22:32:51.229Z,1005.2
2017-07-05T22:33:52.842Z,1005.2
2017-07-05T22:34:56.953Z,1005.2
2017-07-05T22:35:58.595Z,1005.2
2017-07-05T22:37:00.185Z,1005.3
2017-07-05T22:38:01.794Z,1005.3
2017-07-05T22:39:05.401Z,1005.3
2017-07-05T22:40:07.470Z,1005.3
2017-07-05T22:41:09.075Z,1005.3
2017-07-05T22:42:10.704Z,1005.4
2017-07-05T22:43:13.141Z,1005.4
2017-07-05T22:44:14.767Z,1005.4
2017-07-05T22:45:18.056Z,1005.3
2017-07-05T22:46:19.677Z,1005.3
2017-07-05T22:47:22.940Z,1005.3
2017-07-05T22:48:25.209Z,1005.2
2017-07-05T22:49:28.482Z,1005.2
2017-07-05T22:50:30.481Z,1005.2
2017-07-05T22:51:32.088Z,1005.2
2017-07-05T22:52:34.676Z,1005.2
2017-07-05T22:53:36.441Z,1005.2
2017-07-05T22:54:38.054Z,1005.2
2017-07-05T22:55:41.477Z,1005.2
2017-07-05T22:56:43.079Z,1005.2
2017-07-05T22:57:46.358Z,1005.2
2017-07-05T22:58:47.968Z,1005.2
2017-07-05T22:59:51.381Z,1005.3
2017-07-05T23:00:53.875Z,1005.3
2017-07-05T23:01:56.180Z,1005.3
2017-07-05T23:02:57.779Z,1005.3
2017-07-05T23:04:01.941Z,1005.2
2017-07-05T23:05:03.578Z,1005.3
2017-07-05T23:06:05.531Z,1005.3
2017-07-05T23:07:07.146Z,1005.3
2017-07-05T23:08:11.327Z,1005.2
2017-07-05T23:09:12.966Z,1005.2
2017-07-05T23:10:14.560Z,1005.2
2017-07-05T23:11:16.612Z,1005.2
2017-07-05T23:12:19.010Z,1005.2
2017-07-05T23:13:20.609Z,1005.2
2017-07-05T23:14:22.216Z,1005.2
2017-07-05T23:15:23.855Z,1005.2
2017-07-05T23:16:26.578Z,1005.2
2017-07-05T23:17:28.207Z,1005.2
2017-07-05T23:18:31.656Z,1005.2
2017-07-05T23:19:33.284Z,1005.2
2017-07-05T23:20:36.619Z,1005.2
2017-07-05T23:21:38.615Z,1005.2
2017-07-05T23:22:41.554Z,1005.2
2017-07-05T23:23:43.162Z,1005.2
2017-07-05T23:24:46.959Z,1005.2
2017-07-05T23:25:48.578Z,1005.2
2017-07-05T23:26:52.143Z,1005.2
2017-07-05T23:27:53.159Z,1005.2
2017-07-05T23:28:57.265Z,1005.2
2017-07-05T23:29:58.888Z,1005.3
2017-07-05T23:31:00.482Z,1005.3
2017-07-05T23:32:02.515Z,1005.3
2017-07-05T23:33:05.112Z,1005.3
2017-07-05T23:34:06.742Z,1005.3
2017-07-05T23:35:10.024Z,1005.3
2017-07-05T23:36:12.146Z,1005.2
2017-07-05T23:37:14.894Z,1005.2
2017-07-05T23:38:16.508Z,1005.3
2017-07-05T23:39:19.729Z,1005.2
2017-07-05T23:40:21.335Z,1005.2
2017-07-05T23:41:25.134Z,1005.2
2017-07-05T23:42:27.130Z,1005.2
2017-07-05T23:43:32.970Z,1005.2
2017-07-05T23:44:34.608Z,1005.3
2017-07-05T23:45:37.840Z,1005.3
2017-07-05T23:46:39.459Z,1005.3
2017-07-05T23:47:42.685Z,1005.3
2017-07-05T23:48:44.303Z,1005.3
2017-07-05T23:49:47.516Z,1005.3
2017-07-05T23:50:50.653Z,1005.2
2017-07-05T23:51:52.452Z,1005.2
2017-07-05T23:52:54.434Z,1005.2
2017-07-05T23:53:57.448Z,1005.2
2017-07-05T23:54:59.067Z,1005.2
2017-07-05T23:56:02.410Z,1005.2
2017-07-05T23:57:04.692Z,1005.2
2017-07-05T23:58:07.700Z,1005.3
2017-07-05T23:59:09.323Z,1005.2
